Time;durP1;ratioP1;P1;durP2;ratioP2;P2;SDS_P1;SDS_P2;PMS_P1;PMS_P2;Temp;Humidity;BMP_temperature;BMP_pressure;BME280_temperature;BME280_humidity;BME280_pressure;Samples;Min_cycle;Max_cycle;Signal;HPM_P1;HPM_P2
2023/03/23 00:01:46;;;;;;;13.57;5.13;;;;;;;12.18;100.00;99976.09;4914935;29;20067;-87
2023/03/23 00:04:15;;;;;;;17.65;5.82;;;;;;;12.26;100.00;99978.94;4871842;29;20047;-89
2023/03/23 00:06:40;;;;;;;18.77;6.07;;;;;;;12.00;100.00;99941.25;4919296;29;20035;-86
2023/03/23 00:09:06;;;;;;;21.05;6.07;;;;;;;12.20;100.00;99968.56;4884114;29;20028;-89
2023/03/23 00:11:32;;;;;;;17.92;6.03;;;;;;;12.10;100.00;99941.19;4889702;29;20093;-86
2023/03/23 00:14:00;;;;;;;13.07;5.80;;;;;;;12.23;100.00;99979.25;4889138;29;20072;-89
2023/03/23 00:16:30;;;;;;;11.23;5.43;;;;;;;12.11;100.00;99957.50;4905786;29;20035;-87
2023/03/23 00:19:06;;;;;;;16.92;5.65;;;;;;;12.21;100.00;99946.47;4920201;29;20049;-85
2023/03/23 00:21:35;;;;;;;18.98;5.75;;;;;;;12.35;100.00;99963.41;5050887;23;20034;-83
2023/03/23 00:24:08;;;;;;;14.73;5.15;;;;;;;12.36;100.00;99976.13;4978493;29;20050;-89
2023/03/23 00:26:34;;;;;;;;;;;;;;;12.35;100.00;99977.13;4944834;29;20035;-87
2023/03/23 00:29:04;;;;;;;17.02;5.90;;;;;;;12.29;100.00;99968.50;4953389;29;19918;-91
2023/03/23 00:31:32;;;;;;;16.95;5.40;;;;;;;12.20;100.00;99947.50;4947145;29;20070;-90
2023/03/23 00:34:03;;;;;;;13.80;5.43;;;;;;;12.27;100.00;99972.44;4935560;29;20126;-90
2023/03/23 00:36:31;;;;;;;15.48;5.68;;;;;;;12.31;100.00;99966.50;4953790;29;20046;-88
2023/03/23 00:38:57;;;;;;;20.08;5.72;;;;;;;12.28;100.00;99972.28;4936643;29;20026;-89
2023/03/23 00:41:26;;;;;;;18.40;5.60;;;;;;;12.23;100.00;99963.66;5147503;23;20051;-89
2023/03/23 00:54:27;;;;;;;11.43;4.65;;;;;;;12.28;100.00;99966.81;5277079;23;20031;-86
2023/03/23 00:59:28;;;;;;;9.95;3.92;;;;;;;12.27;100.00;99956.81;5772532;23;20093;-84
2023/03/23 01:01:55;;;;;;;13.98;6.03;;;;;;;12.31;100.00;99951.88;5053135;23;20119;-82
2023/03/23 01:04:21;;;;;;;16.02;5.20;;;;;;;12.31;100.00;99944.53;4903723;29;20024;-88
2023/03/23 01:06:51;;;;;;;12.20;4.47;;;;;;;12.38;100.00;99943.88;4920852;29;20040;-86
2023/03/23 01:09:19;;;;;;;17.00;4.72;;;;;;;12.41;100.00;99949.97;4918356;29;20475;-87
2023/03/23 01:11:45;;;;;;;13.32;4.93;;;;;;;12.42;100.00;99950.81;4887974;29;20043;-86
2023/03/23 01:14:12;;;;;;;11.98;4.78;;;;;;;12.41;100.00;99954.56;4925849;29;20047;-86
2023/03/23 01:16:38;;;;;;;14.18;5.07;;;;;;;12.45;100.00;99959.59;4896247;29;20036;-86
2023/03/23 01:19:04;;;;;;;12.65;5.40;;;;;;;12.43;100.00;99956.16;4921344;29;20039;-86
2023/03/23 01:21:30;;;;;;;13.00;5.30;;;;;;;12.48;100.00;99962.03;4931504;29;20067;-86
2023/03/23 01:23:55;;;;;;;14.23;5.10;;;;;;;12.47;100.00;99956.69;4914965;29;20407;-84
2023/03/23 01:26:24;;;;;;;14.52;5.50;;;;;;;12.54;100.00;99943.19;4884019;29;20071;-86
2023/03/23 01:28:50;;;;;;;10.85;5.60;;;;;;;12.36;100.00;99913.00;4919822;29;20024;-89
2023/03/23 01:31:18;;;;;;;12.73;5.40;;;;;;;12.38;100.00;99898.09;4935347;29;20085;-87
2023/03/23 01:33:44;;;;;;;12.07;5.43;;;;;;;12.38;100.00;99922.81;4932939;29;20066;-87
2023/03/23 01:36:15;;;;;;;11.95;5.70;;;;;;;12.33;100.00;99914.19;4943533;29;20039;-86
2023/03/23 01:38:43;;;;;;;15.48;5.28;;;;;;;12.41;100.00;99932.59;5042064;23;20018;-87
2023/03/23 01:41:09;;;;;;;13.98;5.40;;;;;;;12.41;100.00;99911.53;4998159;28;20051;-88
2023/03/23 01:43:36;;;;;;;17.63;5.60;;;;;;;12.34;100.00;99904.06;4980805;28;20058;-89
2023/03/23 01:46:01;;;;;;;12.48;5.75;;;;;;;12.40;100.00;99898.81;4961323;29;20095;-88
2023/03/23 01:48:36;;;;;;;14.05;6.40;;;;;;;12.39;100.00;99888.81;4947314;28;20075;-90
2023/03/23 01:51:15;;;;;;;14.15;4.97;;;;;;;12.39;100.00;99912.69;4954112;29;20090;-88
2023/03/23 01:53:46;;;;;;;17.50;5.97;;;;;;;12.37;100.00;99903.75;4946806;29;20027;-89
2023/03/23 01:56:16;;;;;;;10.68;5.47;;;;;;;12.39;100.00;99905.31;4963224;29;20028;-89
2023/03/23 01:58:42;;;;;;;13.10;5.50;;;;;;;12.40;100.00;99919.91;4979370;28;20058;-89
2023/03/23 02:01:11;;;;;;;15.75;5.80;;;;;;;12.37;100.00;99901.00;4965507;28;20042;-86
2023/03/23 02:03:41;;;;;;;12.93;5.95;;;;;;;12.39;100.00;99918.19;4999498;28;20058;-86
2023/03/23 02:06:07;;;;;;;14.93;5.10;;;;;;;12.38;100.00;99920.06;4983164;28;20039;-87
2023/03/23 02:08:33;;;;;;;14.85;5.68;;;;;;;12.40;100.00;99911.69;4950979;29;20107;-87
2023/03/23 02:11:00;;;;;;;14.43;6.15;;;;;;;12.41;100.00;99906.03;4962024;29;20045;-88
2023/03/23 02:13:27;;;;;;;18.02;5.35;;;;;;;12.36;100.00;99886.41;4947420;29;20035;-83
2023/03/23 02:16:16;;;;;;;14.80;5.10;;;;;;;12.47;100.00;99885.31;4931233;29;20035;-89
2023/03/23 02:19:12;;;;;;;17.23;5.68;;;;;;;12.46;100.00;99878.97;4947222;29;20039;-85
2023/03/23 02:22:15;;;;;;;14.25;5.90;;;;;;;12.42;100.00;99880.28;4954608;29;20062;-88
2023/03/23 02:25:07;;;;;;;12.15;4.93;;;;;;;12.52;100.00;99873.84;4938004;29;20109;-88
2023/03/23 02:28:19;;;;;;;11.85;4.70;;;;;;;12.53;100.00;99878.31;4938259;29;20038;-87
2023/03/23 02:31:11;;;;;;;14.45;5.60;;;;;;;12.55;100.00;99873.53;4949832;29;20376;-88
2023/03/23 02:34:05;;;;;;;9.68;4.50;;;;;;;12.60;100.00;99871.19;4939219;29;20035;-88
2023/03/23 02:36:43;;;;;;;15.88;5.53;;;;;;;12.59;100.00;99872.19;4961052;28;20063;-86
2023/03/23 02:39:11;;;;;;;9.43;4.78;;;;;;;12.64;100.00;99867.06;4962677;28;20078;-83
2023/03/23 02:41:49;;;;;;;17.50;5.55;;;;;;;12.62;100.00;99869.97;4945438;29;20040;-85
2023/03/23 02:44:16;;;;;;;12.25;5.72;;;;;;;12.55;100.00;99859.81;4979122;28;20071;-85
2023/03/23 02:46:43;;;;;;;13.18;5.45;;;;;;;12.67;100.00;99862.16;4946996;28;20039;-84
2023/03/23 02:49:13;;;;;;;13.32;5.60;;;;;;;12.65;100.00;99857.81;4945947;29;20043;-88
2023/03/23 02:51:40;;;;;;;11.82;5.63;;;;;;;12.59;100.00;99844.72;4947663;29;20034;-86
2023/03/23 02:54:06;;;;;;;14.15;5.03;;;;;;;12.58;100.00;99865.84;4931273;29;20039;-88
2023/03/23 02:56:33;;;;;;;13.23;5.35;;;;;;;12.54;100.00;99852.59;4993776;23;20051;-81
2023/03/23 02:58:59;;;;;;;13.55;5.40;;;;;;;12.45;100.00;99851.66;4942313;29;20086;-85
2023/03/23 03:01:35;;;;;;;8.70;5.95;;;;;;;12.46;100.00;99858.84;4907959;29;20036;-89
2023/03/23 03:04:16;;;;;;;17.15;5.97;;;;;;;12.40;100.00;99845.78;4940080;29;20048;-88
2023/03/23 03:06:55;;;;;;;17.17;6.30;;;;;;;12.42;100.00;99850.09;4941754;29;20039;-88
2023/03/23 03:09:30;;;;;;;16.90;6.35;;;;;;;12.41;100.00;99852.97;4974393;23;20063;-87
2023/03/23 03:12:09;;;;;;;13.02;6.07;;;;;;;12.35;100.00;99843.50;4960277;29;20066;-89
2023/03/23 03:14:44;;;;;;;11.25;6.10;;;;;;;12.43;100.00;99854.56;4952223;29;20059;-88
2023/03/23 03:17:23;;;;;;;11.20;6.40;;;;;;;12.42;100.00;99852.81;4946341;29;20035;-88
2023/03/23 03:19:54;;;;;;;10.55;5.43;;;;;;;12.42;100.00;99854.72;4928429;29;20024;-90
2023/03/23 03:22:21;;;;;;;15.82;6.00;;;;;;;12.35;100.00;99834.41;4936123;29;20035;-90
2023/03/23 03:24:48;;;;;;;9.10;5.32;;;;;;;12.47;100.00;99841.38;4939700;28;20043;-90
2023/03/23 03:27:17;;;;;;;15.38;5.97;;;;;;;12.30;100.00;99829.41;4953858;29;20062;-90
2023/03/23 03:29:47;;;;;;;12.98;6.03;;;;;;;12.27;100.00;99818.75;4938464;29;20031;-90
2023/03/23 03:32:18;;;;;;;12.43;5.63;;;;;;;12.26;100.00;99826.09;4971750;28;20047;-89
2023/03/23 03:34:44;;;;;;;10.75;6.00;;;;;;;12.35;100.00;99834.41;4954802;28;20055;-87
2023/03/23 03:37:11;;;;;;;12.50;5.47;;;;;;;12.30;100.00;99818.44;4938429;29;20365;-89
2023/03/23 03:39:37;;;;;;;13.35;5.93;;;;;;;12.44;100.00;99838.94;4960737;29;20035;-87
2023/03/23 03:42:04;;;;;;;13.95;5.60;;;;;;;12.52;100.00;99860.13;4925892;29;20070;-87
2023/03/23 03:44:30;;;;;;;11.23;5.75;;;;;;;12.56;100.00;99864.25;4926807;29;20046;-88
2023/03/23 03:46:56;;;;;;;14.23;5.63;;;;;;;12.46;100.00;99851.50;4907532;29;20067;-89
2023/03/23 03:49:22;;;;;;;11.77;5.22;;;;;;;12.49;100.00;99866.78;4892991;29;20106;-90
2023/03/23 03:51:48;;;;;;;17.73;5.50;;;;;;;12.54;100.00;99867.16;4901680;29;20039;-90
2023/03/23 03:54:13;;;;;;;8.65;5.05;;;;;;;12.36;100.00;99842.47;4944941;29;20038;-90
2023/03/23 03:56:41;;;;;;;17.15;5.30;;;;;;;12.49;100.00;99862.19;4929850;29;20031;-90
2023/03/23 03:59:09;;;;;;;13.43;5.32;;;;;;;12.37;100.00;99840.63;4931141;29;20036;-90
2023/03/23 04:01:36;;;;;;;9.35;5.32;;;;;;;12.42;100.00;99843.75;4931222;29;20042;-89
2023/03/23 04:04:02;;;;;;;12.38;5.55;;;;;;;12.35;100.00;99831.66;4917146;29;20066;-89
2023/03/23 04:06:28;;;;;;;9.57;4.93;;;;;;;12.39;100.00;99839.41;4952168;29;20059;-89
2023/03/23 04:08:58;;;;;;;13.82;5.20;;;;;;;12.42;100.00;99838.25;4954024;29;20522;-90
2023/03/23 04:11:25;;;;;;;14.40;4.85;;;;;;;12.37;100.00;99840.63;4953343;29;20095;-85
2023/03/23 04:13:51;;;;;;;15.70;5.35;;;;;;;12.46;100.00;99845.13;4972332;29;20062;-89
2023/03/23 04:16:17;;;;;;;11.82;4.40;;;;;;;12.39;100.00;99849.53;4941187;29;20043;-89
2023/03/23 04:18:43;;;;;;;18.60;4.93;;;;;;;12.55;100.00;99862.56;4926099;29;20055;-90
2023/03/23 04:21:09;;;;;;;18.75;4.32;;;;;;;12.56;100.00;99872.50;4926467;29;20046;-87
2023/03/23 04:23:35;;;;;;;14.07;4.28;;;;;;;12.63;100.00;99884.59;4945130;29;20039;-89
2023/03/23 04:26:03;;;;;;;12.85;3.75;;;;;;;12.38;100.00;99845.06;4958183;29;20042;-87
2023/03/23 04:28:29;;;;;;;14.50;3.53;;;;;;;12.58;100.00;99886.97;4958920;29;20026;-88
2023/03/23 04:30:55;;;;;;;11.60;3.72;;;;;;;12.52;100.00;99884.84;4937023;29;20070;-87
2023/03/23 04:33:26;;;;;;;11.30;3.35;;;;;;;12.47;100.00;99880.66;4930114;29;20032;-88
2023/03/23 04:35:56;;;;;;;13.85;3.78;;;;;;;12.55;100.00;99892.75;4921049;29;20046;-88
2023/03/23 04:38:24;;;;;;;16.10;3.65;;;;;;;12.60;100.00;99901.38;4947037;29;20035;-88
2023/03/23 04:40:52;;;;;;;10.25;3.58;;;;;;;12.54;100.00;99900.13;4946096;29;20042;-89
2023/03/23 04:43:24;;;;;;;10.20;3.60;;;;;;;12.52;100.00;99898.56;4948124;29;20486;-89
2023/03/23 04:45:57;;;;;;;9.85;3.05;;;;;;;12.46;100.00;99902.78;4945980;29;20129;-89
2023/03/23 04:48:27;;;;;;;12.88;3.50;;;;;;;12.52;100.00;99901.31;4930447;29;20077;-90
2023/03/23 04:50:53;;;;;;;16.92;3.63;;;;;;;12.55;100.00;99922.97;4929387;29;20023;-90
2023/03/23 04:53:19;;;;;;;9.88;3.17;;;;;;;12.60;100.00;99923.34;4950528;29;20038;-90
2023/03/23 04:55:47;;;;;;;18.83;3.63;;;;;;;12.49;100.00;99888.75;4942367;29;20036;-88
2023/03/23 04:58:14;;;;;;;12.02;3.55;;;;;;;12.43;100.00;99903.09;4976318;28;20054;-88
2023/03/23 05:03:07;;;;;;;8.52;2.80;;;;;;;12.52;100.00;99909.56;5208343;23;20058;-89
2023/03/23 05:05:34;;;;;;;9.73;2.70;;;;;;;12.55;100.00;99906.50;4902658;29;20511;-89
2023/03/23 05:08:03;;;;;;;11.20;3.55;;;;;;;12.54;100.00;99915.75;4923470;29;20027;-90
2023/03/23 05:10:28;;;;;;;16.27;3.55;;;;;;;12.41;100.00;99903.28;4944378;29;20051;-88
2023/03/23 05:12:54;;;;;;;10.65;3.20;;;;;;;12.47;100.00;99908.13;4929136;29;20459;-87
2023/03/23 05:15:20;;;;;;;11.77;3.38;;;;;;;12.46;100.00;99909.16;4928746;29;20183;-86
2023/03/23 05:17:45;;;;;;;9.68;3.42;;;;;;;12.40;100.00;99911.69;4915116;29;20039;-87
2023/03/23 05:20:14;;;;;;;9.27;3.25;;;;;;;12.36;100.00;99899.25;4909322;29;20051;-86
2023/03/23 05:22:41;;;;;;;9.60;2.83;;;;;;;12.48;100.00;99912.59;4935123;29;20024;-87
2023/03/23 05:25:14;;;;;;;12.88;3.05;;;;;;;12.57;100.00;99919.03;4927490;29;20032;-87
2023/03/23 05:27:43;;;;;;;;;;;;;;;12.56;100.00;99914.56;4937772;29;20046;-88
2023/03/23 05:30:09;;;;;;;10.88;3.67;;;;;;;12.53;100.00;99914.88;4960008;29;19968;-85
2023/03/23 05:32:37;;;;;;;9.13;3.50;;;;;;;12.49;100.00;99919.84;4922330;29;20566;-85
2023/03/23 05:35:03;;;;;;;12.77;3.95;;;;;;;12.42;100.00;99896.75;4938628;29;20039;-85
2023/03/23 05:37:32;;;;;;;10.38;3.05;;;;;;;12.50;100.00;99920.69;4922573;29;21747;-85
2023/03/23 05:40:04;;;;;;;9.95;2.92;;;;;;;12.50;100.00;99916.06;4940781;29;20046;-86
2023/03/23 05:42:30;;;;;;;21.88;4.32;;;;;;;12.42;100.00;99905.00;4925416;28;20386;-85
2023/03/23 05:44:56;;;;;;;9.07;3.10;;;;;;;12.47;100.00;99924.59;4935659;29;20033;-86
2023/03/23 05:47:21;;;;;;;12.38;3.17;;;;;;;12.34;100.00;99913.16;4952929;29;20120;-85
2023/03/23 05:49:47;;;;;;;14.68;2.72;;;;;;;12.53;100.00;99923.13;4933265;29;20102;-85
2023/03/23 05:52:13;;;;;;;10.10;2.85;;;;;;;12.40;100.00;99907.03;4948790;28;20446;-83
2023/03/23 05:54:38;;;;;;;12.85;3.70;;;;;;;12.40;100.00;99898.81;4963909;28;20063;-88
2023/03/23 05:57:05;;;;;;;17.55;3.20;;;;;;;12.48;100.00;99914.50;4944028;28;20080;-85
2023/03/23 05:59:31;;;;;;;7.85;2.63;;;;;;;12.46;100.00;99919.25;4944380;29;20035;-88
2023/03/23 06:01:57;;;;;;;14.38;2.97;;;;;;;12.37;100.00;99899.13;4944718;29;20062;-88
2023/03/23 06:04:24;;;;;;;19.48;4.13;;;;;;;12.40;100.00;99911.69;4943987;29;20032;-89
2023/03/23 06:06:51;;;;;;;16.42;2.97;;;;;;;12.50;100.00;99927.03;4958521;29;20095;-88
2023/03/23 06:09:17;;;;;;;13.55;3.25;;;;;;;12.36;100.00;99908.34;5383785;23;20033;-88
2023/03/23 06:11:44;;;;;;;15.77;3.67;;;;;;;12.23;100.00;99886.81;4872913;29;20052;-85
2023/03/23 06:29:41;;;;;;;10.85;2.47;;;;;;;12.41;100.00;99941.72;5681195;23;20053;-86
2023/03/23 06:32:07;;;;;;;14.05;2.65;;;;;;;12.40;100.00;99942.72;4924692;29;20532;-84
2023/03/23 06:34:32;;;;;;;10.30;2.30;;;;;;;12.48;100.00;99945.56;5098864;23;20067;-83
2023/03/23 06:51:23;;;;;;;16.42;3.10;;;;;;;12.51;100.00;99974.59;5768037;23;20052;-84
2023/03/23 06:53:48;;;;;;;10.52;2.05;;;;;;;12.54;100.00;99981.63;4902044;29;20047;-85
2023/03/23 06:56:14;;;;;;;19.15;2.03;;;;;;;12.49;100.00;99965.63;4902956;29;20036;-87
2023/03/23 06:58:41;;;;;;;9.52;2.22;;;;;;;12.40;100.00;99959.19;4923441;29;20487;-86
2023/03/23 07:01:08;;;;;;;7.57;1.65;;;;;;;12.49;100.00;99977.50;4909228;29;20039;-85
2023/03/23 07:03:33;;;;;;;5.47;1.83;;;;;;;12.41;100.00;99976.53;4896809;29;20044;-85
2023/03/23 07:06:03;;;;;;;6.80;1.60;;;;;;;12.34;100.00;99961.69;4906950;29;20476;-85
2023/03/23 07:08:28;;;;;;;6.18;1.50;;;;;;;12.51;100.00;99977.34;4883941;29;20048;-85
2023/03/23 07:10:56;;;;;;;7.13;1.83;;;;;;;12.44;100.00;99984.44;4903079;29;20032;-82
2023/03/23 07:13:21;;;;;;;7.82;1.95;;;;;;;12.40;100.00;99980.31;4891539;29;20095;-89
2023/03/23 07:15:48;;;;;;;7.60;2.03;;;;;;;12.44;100.00;99982.56;4887121;29;20130;-86
2023/03/23 07:18:14;;;;;;;8.48;2.20;;;;;;;12.43;100.00;99979.97;4871438;29;20043;-83
2023/03/23 07:20:39;;;;;;;12.52;3.15;;;;;;;12.37;100.00;99983.34;4871583;29;20480;-84
2023/03/23 07:23:05;;;;;;;11.45;2.47;;;;;;;12.37;100.00;99981.47;4871089;29;20066;-82
2023/03/23 07:25:32;;;;;;;7.55;2.38;;;;;;;12.46;100.00;99987.91;4860872;29;20114;-84
2023/03/23 07:28:00;;;;;;;12.13;2.03;;;;;;;12.43;100.00;99986.34;4901520;29;20032;-85
2023/03/23 07:30:26;;;;;;;8.25;2.45;;;;;;;12.39;100.00;99989.56;4882649;29;20040;-85
2023/03/23 07:32:51;;;;;;;7.53;2.08;;;;;;;12.29;100.00;99964.91;4886298;29;20515;-87
2023/03/23 07:35:20;;;;;;;11.32;3.05;;;;;;;12.28;100.00;99966.81;4881377;29;20100;-84
2023/03/23 07:37:48;;;;;;;9.27;2.03;;;;;;;12.48;100.00;99988.63;4839649;29;20037;-82
2023/03/23 07:40:14;;;;;;;14.00;2.67;;;;;;;12.42;100.00;99979.13;4852957;29;20044;-82
2023/03/23 07:42:52;;;;;;;13.30;2.03;;;;;;;12.52;100.00;99984.53;4867463;29;20045;-82
2023/03/23 07:45:18;;;;;;;9.73;2.03;;;;;;;12.48;100.00;99994.97;4897371;29;20128;-82
2023/03/23 07:47:43;;;;;;;11.90;1.75;;;;;;;12.48;100.00;99992.22;4918482;29;20547;-82
2023/03/23 07:50:09;;;;;;;12.63;1.90;;;;;;;12.54;100.00;99987.97;4886090;29;20032;-82
2023/03/23 07:52:36;;;;;;;11.85;3.70;;;;;;;12.55;100.00;99988.88;4899367;29;20519;-82
2023/03/23 07:55:03;;;;;;;7.28;1.88;;;;;;;12.58;100.00;100003.16;4878698;29;20500;-82
2023/03/23 07:57:30;;;;;;;12.18;2.78;;;;;;;12.55;100.00;99997.97;4900078;29;20424;-82
2023/03/23 07:59:57;;;;;;;12.63;3.28;;;;;;;12.57;100.00;99993.16;4884396;29;20503;-81
2023/03/23 08:02:24;;;;;;;9.00;2.33;;;;;;;12.51;100.00;99985.56;4885321;29;20492;-81
2023/03/23 08:04:50;;;;;;;9.48;2.22;;;;;;;12.49;100.00;100006.81;4894346;29;20068;-82
2023/03/23 08:07:18;;;;;;;19.83;2.45;;;;;;;12.79;100.00;100074.28;4859799;29;20047;-80
2023/03/23 08:09:45;;;;;;;10.07;1.15;;;;;;;10.61;100.00;100079.69;4884990;29;20067;-79
2023/03/23 08:12:11;;;;;;;5.90;0.85;;;;;;;10.19;100.00;100055.19;4918032;29;20036;-79
2023/03/23 08:14:37;;;;;;;6.18;0.70;;;;;;;10.65;100.00;100057.34;4900083;29;20044;-79
2023/03/23 08:17:02;;;;;;;11.63;1.10;;;;;;;10.44;100.00;100059.31;4869983;29;20480;-79
2023/03/23 08:19:27;;;;;;;7.75;1.02;;;;;;;10.34;100.00;100072.97;4899974;29;20047;-80
2023/03/23 08:21:53;;;;;;;4.55;0.80;;;;;;;10.38;100.00;100063.50;4869076;29;20048;-80
2023/03/23 08:24:19;;;;;;;7.68;2.25;;;;;;;10.40;100.00;100074.31;4897111;29;20044;-80
2023/03/23 08:26:45;;;;;;;5.00;1.10;;;;;;;10.20;100.00;100076.06;4882287;29;20051;-80
2023/03/23 08:29:10;;;;;;;8.80;1.45;;;;;;;10.17;100.00;100060.81;4866599;29;20025;-80
2023/03/23 08:31:38;;;;;;;9.40;1.00;;;;;;;10.33;100.00;100074.00;4866826;29;20183;-81
2023/03/23 08:34:05;;;;;;;2.63;1.30;;;;;;;10.53;100.00;100098.69;4881171;29;20040;-80
2023/03/23 08:36:32;;;;;;;4.55;1.15;;;;;;;10.39;100.00;100088.97;4900981;29;20040;-80
2023/03/23 08:38:57;;;;;;;9.88;1.38;;;;;;;10.52;100.00;100086.00;4884946;29;20040;-80
2023/03/23 08:41:23;;;;;;;6.55;1.48;;;;;;;10.57;100.00;100089.19;4900670;29;20028;-81
2023/03/23 08:43:50;;;;;;;5.47;1.20;;;;;;;10.60;100.00;100105.31;4887380;29;20071;-80
2023/03/23 08:46:16;;;;;;;6.55;1.27;;;;;;;10.57;100.00;100081.81;4912846;29;20487;-80
2023/03/23 08:48:43;;;;;;;5.90;1.52;;;;;;;10.83;100.00;100105.94;4896459;29;20139;-80
2023/03/23 08:51:10;;;;;;;10.07;2.17;;;;;;;10.83;100.00;100106.81;4870958;29;20492;-80
2023/03/23 08:53:36;;;;;;;4.57;1.10;;;;;;;10.58;100.00;100089.03;4869973;29;20043;-80
2023/03/23 08:56:07;;;;;;;3.42;1.10;;;;;;;10.69;100.00;100096.28;4869606;29;20096;-80
2023/03/23 08:58:34;;;;;;;7.07;1.15;;;;;;;10.91;100.00;100113.47;4900003;29;20040;-81
2023/03/23 09:01:02;;;;;;;6.65;1.13;;;;;;;11.01;100.00;100106.09;4904836;29;20043;-81
2023/03/23 09:03:28;;;;;;;4.32;0.90;;;;;;;11.10;100.00;100108.00;4901823;29;20046;-81
2023/03/23 09:05:59;;;;;;;5.63;0.90;;;;;;;11.07;100.00;100105.53;4917996;29;20040;-82
2023/03/23 09:08:25;;;;;;;4.57;1.10;;;;;;;11.19;100.00;100111.75;4866150;29;20409;-81
2023/03/23 09:10:50;;;;;;;10.20;1.48;;;;;;;11.15;100.00;100104.81;4866531;29;20039;-81
2023/03/23 09:13:16;;;;;;;6.72;1.08;;;;;;;11.12;100.00;100103.22;4882605;29;20512;-81
2023/03/23 09:15:42;;;;;;;9.68;1.70;;;;;;;11.28;100.00;100099.94;4867064;29;20040;-82
2023/03/23 09:18:07;;;;;;;8.48;1.20;;;;;;;11.12;100.00;100096.91;4882431;29;20040;-81
2023/03/23 09:20:33;;;;;;;7.32;0.90;;;;;;;11.14;100.00;100087.50;4882221;29;20502;-82
2023/03/23 09:22:59;;;;;;;5.55;1.10;;;;;;;11.26;100.00;100095.59;4917893;29;20067;-82
2023/03/23 09:25:27;;;;;;;8.52;1.00;;;;;;;11.30;100.00;100108.00;4885559;29;20041;-82
2023/03/23 09:27:56;;;;;;;7.18;1.10;;;;;;;11.33;100.00;100107.69;4900176;29;20032;-82
2023/03/23 09:30:26;;;;;;;9.10;1.40;;;;;;;11.24;100.00;100075.69;4885085;29;20036;-82
2023/03/23 09:32:52;;;;;;;3.03;0.88;;;;;;;11.47;100.00;100111.88;4900460;29;20039;-82
2023/03/23 09:35:21;;;;;;;2.53;0.80;;;;;;;11.33;100.00;100126.88;4900816;29;20036;-81
2023/03/23 09:37:48;;;;;;;5.55;0.77;;;;;;;11.27;100.00;100120.09;4885629;29;20115;-82
2023/03/23 09:40:27;;;;;;;5.07;0.80;;;;;;;11.05;100.00;100121.22;4885604;29;20032;-82
2023/03/23 09:43:10;;;;;;;11.88;1.02;;;;;;;11.07;100.00;100123.84;4900424;29;20083;-81
2023/03/23 09:45:58;;;;;;;4.38;0.90;;;;;;;11.01;100.00;100114.31;4918697;29;20032;-81
2023/03/23 09:48:33;;;;;;;3.58;1.23;;;;;;;11.13;100.00;100120.53;4903725;29;20440;-81
2023/03/23 09:51:21;;;;;;;6.93;0.70;;;;;;;10.86;100.00;100141.25;4903021;29;20028;-81
2023/03/23 09:53:58;;;;;;;1.88;0.73;;;;;;;10.78;100.00;100132.88;4903524;29;20044;-81
2023/03/23 09:56:27;;;;;;;6.05;1.00;;;;;;;10.70;100.00;100127.25;4919359;29;20043;-80
2023/03/23 09:59:02;;;;;;;2.25;0.70;;;;;;;10.65;100.00;100117.56;4887833;29;20059;-80
2023/03/23 10:01:34;;;;;;;3.85;0.82;;;;;;;10.76;100.00;100116.59;4888103;29;20035;-80
2023/03/23 10:04:26;;;;;;;8.52;1.15;;;;;;;10.84;100.00;100115.91;4920206;29;20044;-80
2023/03/23 10:06:58;;;;;;;5.82;1.35;;;;;;;10.98;100.00;100125.56;4919707;29;20044;-81
2023/03/23 10:09:24;;;;;;;6.65;1.13;;;;;;;11.24;100.00;100114.06;4869035;29;20036;-81
2023/03/23 10:11:56;;;;;;;10.75;1.27;;;;;;;12.50;100.00;100124.72;4854772;29;20044;-81
2023/03/23 10:14:48;;;;;;;7.05;1.20;;;;;;;12.86;100.00;100123.97;4900643;29;20460;-81
2023/03/23 10:17:25;;;;;;;5.07;1.10;;;;;;;12.91;100.00;100123.50;4876020;29;20056;-81
2023/03/23 10:20:21;;;;;;;6.70;1.35;;;;;;;12.29;100.00;100124.09;4901395;29;20037;-82
2023/03/23 10:22:55;;;;;;;6.03;1.50;;;;;;;12.35;100.00;100118.03;4909131;29;20127;-81
2023/03/23 10:25:26;;;;;;;3.72;1.05;;;;;;;13.01;100.00;100135.28;4902840;29;20084;-81
2023/03/23 10:28:17;;;;;;;9.07;1.63;;;;;;;13.31;100.00;100139.53;4903057;29;20119;-82
2023/03/23 10:30:46;;;;;;;5.35;1.27;;;;;;;12.70;100.00;100135.63;4902581;29;20032;-82
2023/03/23 10:33:35;;;;;;;6.65;1.42;;;;;;;12.50;100.00;100148.59;4919327;29;20040;-82
2023/03/23 10:36:04;;;;;;;6.55;1.27;;;;;;;13.00;100.00;100142.69;4878862;29;20168;-82
2023/03/23 10:38:36;;;;;;;6.95;1.35;;;;;;;12.84;100.00;100146.09;4892606;29;20507;-82
2023/03/23 10:41:11;;;;;;;6.13;1.38;;;;;;;12.64;100.00;100149.94;4886804;29;20028;-82
2023/03/23 10:43:37;;;;;;;6.88;1.63;;;;;;;12.52;100.00;100143.81;4901723;29;20036;-82
2023/03/23 10:46:22;;;;;;;9.77;1.95;;;;;;;12.47;100.00;100138.75;4903055;29;20036;-82
2023/03/23 10:48:49;;;;;;;8.23;1.63;;;;;;;12.56;100.00;100142.50;4903034;29;20032;-83
2023/03/23 10:51:19;;;;;;;7.63;1.33;;;;;;;13.12;100.00;100145.16;4879338;29;20036;-82
2023/03/23 10:53:49;;;;;;;6.25;1.35;;;;;;;13.56;100.00;100143.41;4918366;29;20122;-83
2023/03/23 10:56:27;;;;;;;4.93;1.30;;;;;;;13.63;100.00;100137.28;4919309;29;20163;-83
2023/03/23 10:58:54;;;;;;;8.50;1.55;;;;;;;13.90;100.00;100133.53;4886729;29;20040;-83
2023/03/23 11:01:32;;;;;;;8.90;1.52;;;;;;;14.14;100.00;100130.06;4902868;29;20028;-83
2023/03/23 11:04:00;;;;;;;3.95;1.30;;;;;;;14.06;100.00;100130.03;4887043;29;20473;-83
2023/03/23 11:06:39;;;;;;;6.10;1.75;;;;;;;14.49;100.00;100134.59;4901639;29;20122;-83
2023/03/23 11:09:17;;;;;;;6.45;1.45;;;;;;;14.51;100.00;100134.38;4873294;29;20192;-83
2023/03/23 11:11:55;;;;;;;11.07;1.48;;;;;;;14.27;100.00;100136.00;4899282;29;20127;-83
2023/03/23 11:14:38;;;;;;;8.65;1.60;;;;;;;13.93;100.00;100131.31;4868666;29;20035;-83
2023/03/23 11:17:19;;;;;;;5.53;1.45;;;;;;;13.96;100.00;100124.63;4895763;29;20040;-83
2023/03/23 11:19:45;;;;;;;5.13;1.25;;;;;;;13.64;100.00;100137.09;4901350;29;20028;-83
2023/03/23 11:22:29;;;;;;;6.32;1.52;;;;;;;13.52;100.00;100124.63;4886729;29;20039;-83
2023/03/23 11:25:00;;;;;;;7.70;1.60;;;;;;;13.82;100.00;100147.22;4886747;29;20032;-83
2023/03/23 11:27:27;;;;;;;6.82;1.60;;;;;;;13.64;100.00;100147.25;4902428;29;20032;-83
2023/03/23 11:30:18;;;;;;;10.82;1.95;;;;;;;13.65;100.00;100141.59;4886775;29;20035;-83
2023/03/23 11:32:45;;;;;;;3.97;1.50;;;;;;;13.96;100.00;100143.91;4882178;29;20052;-83
2023/03/23 11:35:22;;;;;;;2.92;1.60;;;;;;;13.83;100.00;100144.31;4903098;29;20036;-84
2023/03/23 11:37:57;;;;;;;5.80;1.27;;;;;;;13.62;100.00;100146.56;4902538;29;20043;-83
2023/03/23 11:40:29;;;;;;;4.28;1.67;;;;;;;13.69;100.00;100148.53;4901624;29;20084;-83
2023/03/23 11:43:00;;;;;;;4.88;1.40;;;;;;;13.74;100.00;100159.00;4902542;29;20056;-83
2023/03/23 11:45:37;;;;;;;13.23;1.97;;;;;;;13.87;100.00;100158.59;4886683;29;20044;-82
2023/03/23 11:48:20;;;;;;;3.45;1.88;;;;;;;13.85;100.00;100157.91;4902582;29;20038;-83
2023/03/23 11:51:26;;;;;;;7.22;1.63;;;;;;;13.76;100.00;100155.09;4886902;29;20035;-83
2023/03/23 11:54:32;;;;;;;6.18;1.83;;;;;;;13.89;100.00;100164.84;4884096;29;20041;-83
2023/03/23 11:56:57;;;;;;;3.95;1.63;;;;;;;14.11;100.00;100157.94;4884032;29;20035;-83
2023/03/23 11:59:31;;;;;;;3.53;1.52;;;;;;;14.15;100.00;100165.72;4868889;29;20064;-83
2023/03/23 12:02:09;;;;;;;3.47;1.63;;;;;;;14.25;100.00;100171.09;4884701;29;20133;-83
2023/03/23 12:05:07;;;;;;;8.18;2.25;;;;;;;14.53;100.00;100176.44;4899740;29;20112;-83
2023/03/23 12:07:40;;;;;;;5.50;1.30;;;;;;;14.15;100.00;100160.19;4884995;29;20032;-83
2023/03/23 12:10:13;;;;;;;;;;;;;;;14.10;100.00;100170.84;4884880;29;20123;-83
2023/03/23 12:12:58;;;;;;;9.35;2.25;;;;;;;14.04;100.00;100163.22;4918496;29;19915;-82
2023/03/23 12:15:45;;;;;;;8.55;1.92;;;;;;;13.95;100.00;100147.66;4896209;29;20120;-82
2023/03/23 12:18:41;;;;;;;9.00;1.85;;;;;;;14.02;100.00;100145.13;4882733;29;20072;-83
2023/03/23 12:21:43;;;;;;;8.55;2.05;;;;;;;14.05;100.00;100136.53;4902845;29;20038;-82